Time,TemperatureF,DewpointF,PressureIn,WindDirection,WindDirectionDegrees,WindSpeedMPH,WindSpeedGustMPH,Humidity,HourlyPrecipIn,Conditions,Clouds,dailyrainin,SoftwareType,DateUTC
2013-03-19 00:02:00,49.0,46.0,30.12,East,82,4.0,6.0,90,-99.99,,,-99.99,,2013-03-19 07:02:00,
2013-03-19 00:11:00,49.0,46.0,30.12,East,82,4.0,6.0,90,-99.99,,,-99.99,,2013-03-19 07:11:00,
2013-03-19 00:21:00,49.0,46.0,30.11,NE,55,2.0,3.0,90,-99.99,,,-99.99,,2013-03-19 07:21:00,
2013-03-19 00:32:00,49.0,46.0,30.12,NNE,23,1.0,5.0,90,-99.99,,,-99.99,,2013-03-19 07:32:00,
2013-03-19 00:42:00,49.0,46.0,30.12,NNE,23,1.0,5.0,90,-99.99,,,-99.99,,2013-03-19 07:42:00,
2013-03-19 00:52:00,49.0,46.0,30.12,NNE,23,1.0,5.0,90,-99.99,,,-99.99,,2013-03-19 07:52:00,
2013-03-19 01:02:00,49.0,46.0,30.11,ENE,78,2.0,7.0,89,-99.99,,,-99.99,,2013-03-19 08:02:00,
2013-03-19 01:12:00,49.0,46.0,30.11,ENE,78,2.0,7.0,89,-99.99,,,-99.99,,2013-03-19 08:12:00,
2013-03-19 01:22:00,49.0,46.0,30.10,NE,44,3.0,6.0,89,-99.99,,,-99.99,,2013-03-19 08:22:00,
2013-03-19 01:32:00,49.0,46.0,30.11,NE,40,0.0,1.0,89,-99.99,,,-99.99,,2013-03-19 08:32:00,
2013-03-19 01:41:00,49.0,46.0,30.11,NE,40,0.0,1.0,89,-99.99,,,-99.99,,2013-03-19 08:41:00,
2013-03-19 01:52:00,49.0,46.0,30.10,NNE,17,1.0,3.0,88,-99.99,,,-99.99,,2013-03-19 08:52:00,
2013-03-19 02:02:00,49.0,46.0,30.10,ENE,73,3.0,8.0,88,-99.99,,,-99.99,,2013-03-19 09:02:00,
2013-03-19 02:11:00,49.0,46.0,30.10,ENE,73,3.0,8.0,88,-99.99,,,-99.99,,2013-03-19 09:11:00,
2013-03-19 02:22:00,50.0,46.0,30.09,ENE,66,1.0,10.0,86,-99.99,,,-99.99,,2013-03-19 09:22:00,
2013-03-19 02:32:00,50.0,45.0,30.09,NE,40,2.0,9.0,82,-99.99,,,-99.99,,2013-03-19 09:32:00,
2013-03-19 02:42:00,50.0,45.0,30.09,NE,40,2.0,9.0,82,-99.99,,,-99.99,,2013-03-19 09:42:00,
2013-03-19 02:52:00,51.0,45.0,30.10,NE,42,0.0,7.0,81,-99.99,,,-99.99,,2013-03-19 09:52:00,
2013-03-19 03:03:00,50.0,44.0,30.09,SSE,160,0.0,2.0,80,-99.99,,,-99.99,,2013-03-19 10:03:00,
2013-03-19 03:12:00,50.0,44.0,30.09,SSE,160,0.0,2.0,80,-99.99,,,-99.99,,2013-03-19 10:12:00,
2013-03-19 03:22:00,50.0,44.0,30.09,SSE,160,0.0,2.0,80,-99.99,,,-99.99,,2013-03-19 10:22:00,
2013-03-19 03:32:00,50.0,44.0,30.09,NE,37,0.0,9.0,80,-99.99,,,-99.99,,2013-03-19 10:32:00,
2013-03-19 03:42:00,50.0,44.0,30.09,NE,37,0.0,9.0,80,-99.99,,,-99.99,,2013-03-19 10:42:00,
2013-03-19 03:53:00,50.0,44.0,30.09,NE,42,0.0,2.0,80,-99.99,,,-99.99,,2013-03-19 10:53:00,
2013-03-19 04:02:00,49.0,43.0,30.08,ENE,69,0.0,6.0,81,-99.99,,,-99.99,,2013-03-19 11:02:00,
2013-03-19 04:11:00,49.0,43.0,30.08,ENE,69,0.0,6.0,81,-99.99,,,-99.99,,2013-03-19 11:11:00,
2013-03-19 04:22:00,49.0,43.0,30.08,ENE,69,1.0,2.0,81,-99.99,,,-99.99,,2013-03-19 11:22:00,
2013-03-19 04:32:00,49.0,43.0,30.07,East,86,0.0,1.0,81,-99.99,,,-99.99,,2013-03-19 11:32:00,
2013-03-19 04:41:00,49.0,43.0,30.07,East,86,0.0,1.0,81,-99.99,,,-99.99,,2013-03-19 11:41:00,
2013-03-19 04:52:00,49.0,44.0,30.07,East,86,1.0,2.0,82,-99.99,,,-99.99,,2013-03-19 11:52:00,
2013-03-19 05:02:00,48.0,43.0,30.06,NE,34,2.0,2.0,82,-99.99,,,-99.99,,2013-03-19 12:02:00,
2013-03-19 05:12:00,48.0,43.0,30.06,East,79,1.0,3.0,83,-99.99,,,-99.99,,2013-03-19 12:12:00,
2013-03-19 05:32:00,47.0,43.0,30.06,NE,51,3.0,3.0,85,-99.99,,,-99.99,,2013-03-19 12:32:00,
2013-03-19 05:42:00,47.0,43.0,30.06,NE,51,3.0,3.0,85,-99.99,,,-99.99,,2013-03-19 12:42:00,
2013-03-19 05:51:00,47.0,43.0,30.06,North,10,0.0,4.0,85,-99.99,,,-99.99,,2013-03-19 12:51:00,
2013-03-19 06:02:00,48.0,44.0,30.06,NE,44,5.0,7.0,85,-99.99,,,-99.99,,2013-03-19 13:02:00,
2013-03-19 06:11:00,48.0,44.0,30.06,NE,44,5.0,7.0,85,-99.99,,,-99.99,,2013-03-19 13:11:00,
2013-03-19 06:22:00,48.0,44.0,30.06,NE,44,5.0,7.0,85,-99.99,,,-99.99,,2013-03-19 13:22:00,
2013-03-19 06:32:00,48.0,43.0,30.07,NE,51,0.0,5.0,84,-99.99,,,-99.99,,2013-03-19 13:32:00,
2013-03-19 06:41:00,48.0,43.0,30.07,NE,51,0.0,5.0,84,-99.99,,,-99.99,,2013-03-19 13:41:00,
2013-03-19 06:52:00,48.0,43.0,30.07,ENE,58,1.0,2.0,84,-99.99,,,-99.99,,2013-03-19 13:52:00,
2013-03-19 07:02:00,47.0,43.0,30.08,NNE,25,2.0,3.0,85,-99.99,,,-99.99,,2013-03-19 14:02:00,
2013-03-19 07:11:00,47.0,43.0,30.08,NNE,25,2.0,3.0,85,-99.99,,,-99.99,,2013-03-19 14:11:00,
2013-03-19 07:22:00,47.0,43.0,30.08,NNE,27,1.0,3.0,85,-99.99,,,-99.99,,2013-03-19 14:22:00,
2013-03-19 07:32:00,48.0,43.0,30.08,NE,38,1.0,5.0,84,-99.99,,,-99.99,,2013-03-19 14:32:00,
2013-03-19 07:41:00,48.0,43.0,30.08,NE,38,1.0,5.0,84,-99.99,,,-99.99,,2013-03-19 14:41:00,
2013-03-19 07:51:00,48.0,43.0,30.09,North,4,1.0,4.0,84,-99.99,,,-99.99,,2013-03-19 14:51:00,
2013-03-19 08:02:00,49.0,43.0,30.10,NNE,16,3.0,5.0,80,-99.99,,,-99.99,,2013-03-19 15:02:00,
2013-03-19 08:22:00,50.0,44.0,30.09,NNE,27,0.0,4.0,79,-99.99,,,-99.99,,2013-03-19 15:22:00,
2013-03-19 08:33:00,50.0,43.0,30.10,NNE,27,1.0,2.0,78,-99.99,,,-99.99,,2013-03-19 15:33:00,
2013-03-19 08:43:00,50.0,43.0,30.10,NNE,27,1.0,2.0,78,-99.99,,,-99.99,,2013-03-19 15:43:00,
2013-03-19 08:52:00,50.0,43.0,30.11,NNE,27,2.0,2.0,78,-99.99,,,-99.99,,2013-03-19 15:52:00,
2013-03-19 09:03:00,51.0,44.0,30.11,NE,48,2.0,4.0,78,-99.99,,,-99.99,,2013-03-19 16:03:00,
2013-03-19 09:12:00,51.0,44.0,30.11,NE,48,2.0,4.0,78,-99.99,,,-99.99,,2013-03-19 16:12:00,
2013-03-19 09:23:00,52.0,45.0,30.11,NNE,31,0.0,6.0,77,-99.99,,,-99.99,,2013-03-19 16:23:00,
2013-03-19 09:33:00,54.0,46.0,30.11,ENE,59,5.0,7.0,73,-99.99,,,-99.99,,2013-03-19 16:33:00,
2013-03-19 09:53:00,55.0,45.0,30.11,ESE,104,1.0,7.0,70,-99.99,,,-99.99,,2013-03-19 16:53:00,
2013-03-19 10:02:00,57.0,46.0,30.10,SE,126,2.0,6.0,67,-99.99,,,-99.99,,2013-03-19 17:02:00,
2013-03-19 10:13:00,57.0,46.0,30.11,SE,141,3.0,6.0,67,-99.99,,,-99.99,,2013-03-19 17:13:00,
2013-03-19 10:23:00,57.0,46.0,30.11,SE,141,3.0,6.0,67,-99.99,,,-99.99,,2013-03-19 17:23:00,
2013-03-19 10:34:00,58.0,47.0,30.11,NE,48,3.0,6.0,67,-99.99,,,-99.99,,2013-03-19 17:34:00,
2013-03-19 10:43:00,58.0,47.0,30.11,NE,48,3.0,6.0,67,-99.99,,,-99.99,,2013-03-19 17:43:00,
2013-03-19 10:52:00,58.0,45.0,30.11,East,92,5.0,6.0,61,-99.99,,,-99.99,,2013-03-19 17:52:00,
2013-03-19 11:02:00,60.0,43.0,30.11,SE,138,0.0,4.0,53,-99.99,,,-99.99,,2013-03-19 18:02:00,
2013-03-19 11:13:00,60.0,43.0,30.11,SE,138,0.0,4.0,53,-99.99,,,-99.99,,2013-03-19 18:13:00,
2013-03-19 11:22:00,61.0,44.0,30.11,WSW,240,1.0,3.0,53,-99.99,,,-99.99,,2013-03-19 18:22:00,
2013-03-19 11:33:00,64.0,47.0,30.11,West,272,2.0,5.0,53,-99.99,,,-99.99,,2013-03-19 18:33:00,
2013-03-19 11:42:00,64.0,47.0,30.11,West,272,2.0,5.0,53,-99.99,,,-99.99,,2013-03-19 18:42:00,
2013-03-19 11:52:00,65.0,47.0,30.10,WNW,295,1.0,3.0,52,-99.99,,,-99.99,,2013-03-19 18:52:00,
2013-03-19 12:02:00,65.0,47.0,30.10,WNW,295,1.0,3.0,52,-99.99,,,-99.99,,2013-03-19 19:02:00,
2013-03-19 12:11:00,65.0,47.0,30.10,WNW,295,1.0,3.0,52,-99.99,,,-99.99,,2013-03-19 19:11:00,
2013-03-19 12:21:00,65.0,46.0,30.11,SW,226,1.0,5.0,50,-99.99,,,-99.99,,2013-03-19 19:21:00,
2013-03-19 12:32:00,68.0,44.0,30.10,West,260,3.0,6.0,42,-99.99,,,-99.99,,2013-03-19 19:32:00,
2013-03-19 12:42:00,68.0,44.0,30.10,West,260,3.0,6.0,42,-99.99,,,-99.99,,2013-03-19 19:42:00,
2013-03-19 12:52:00,68.0,44.0,30.10,WSW,237,2.0,7.0,42,-99.99,,,-99.99,,2013-03-19 19:52:00,
2013-03-19 13:02:00,69.0,48.0,30.10,WSW,237,5.0,10.0,47,-99.99,,,-99.99,,2013-03-19 20:02:00,
2013-03-19 13:11:00,69.0,47.0,30.10,SSW,206,7.0,11.0,46,-99.99,,,-99.99,,2013-03-19 20:11:00,
2013-03-19 13:22:00,69.0,47.0,30.10,SSW,206,7.0,11.0,46,-99.99,,,-99.99,,2013-03-19 20:22:00,
2013-03-19 13:32:00,69.0,47.0,30.10,West,281,8.0,13.0,46,-99.99,,,-99.99,,2013-03-19 20:32:00,
2013-03-19 13:42:00,69.0,47.0,30.10,West,281,8.0,13.0,46,-99.99,,,-99.99,,2013-03-19 20:42:00,
2013-03-19 13:52:00,70.0,46.0,30.10,WNW,282,6.0,12.0,42,-99.99,,,-99.99,,2013-03-19 20:52:00,
2013-03-19 14:02:00,70.0,40.0,30.10,West,270,3.0,10.0,34,-99.99,,,-99.99,,2013-03-19 21:02:00,
2013-03-19 14:11:00,70.0,40.0,30.10,West,270,3.0,10.0,34,-99.99,,,-99.99,,2013-03-19 21:11:00,
2013-03-19 14:22:00,70.0,40.0,30.10,West,270,3.0,10.0,34,-99.99,,,-99.99,,2013-03-19 21:22:00,
2013-03-19 14:33:00,71.0,41.0,30.08,SW,220,10.0,13.0,34,-99.99,,,-99.99,,2013-03-19 21:33:00,
2013-03-19 14:42:00,71.0,41.0,30.08,SW,220,10.0,13.0,34,-99.99,,,-99.99,,2013-03-19 21:42:00,
2013-03-19 14:53:00,70.0,39.0,30.08,SW,236,11.0,13.0,32,-99.99,,,-99.99,,2013-03-19 21:53:00,
2013-03-19 15:02:00,70.0,38.0,30.08,SW,232,11.0,14.0,31,-99.99,,,-99.99,,2013-03-19 22:02:00,
2013-03-19 15:12:00,70.0,38.0,30.08,SW,232,11.0,14.0,31,-99.99,,,-99.99,,2013-03-19 22:12:00,
2013-03-19 15:22:00,69.0,39.0,30.09,SW,222,8.0,13.0,33,-99.99,,,-99.99,,2013-03-19 22:22:00,
2013-03-19 15:32:00,68.0,39.0,30.09,WSW,258,7.0,14.0,35,-99.99,,,-99.99,,2013-03-19 22:32:00,
2013-03-19 15:42:00,63.0,45.0,30.10,SW,222,10.0,16.0,51,-99.99,,,-99.99,,2013-03-19 22:42:00,
2013-03-19 15:52:00,63.0,45.0,30.10,SW,222,10.0,16.0,51,-99.99,,,-99.99,,2013-03-19 22:52:00,
2013-03-19 16:02:00,61.0,44.0,30.10,SW,216,10.0,11.0,54,-99.99,,,-99.99,,2013-03-19 23:02:00,
2013-03-19 16:12:00,63.0,45.0,30.10,SSW,192,4.0,10.0,52,-99.99,,,-99.99,,2013-03-19 23:12:00,
2013-03-19 16:21:00,63.0,45.0,30.10,SSW,192,4.0,10.0,52,-99.99,,,-99.99,,2013-03-19 23:21:00,
2013-03-19 16:32:00,62.0,44.0,30.10,SW,222,6.0,7.0,51,-99.99,,,-99.99,,2013-03-19 23:32:00,
2013-03-19 16:42:00,62.0,44.0,30.10,SW,222,6.0,7.0,51,-99.99,,,-99.99,,2013-03-19 23:42:00,
2013-03-19 16:51:00,63.0,44.0,30.11,SW,233,8.0,12.0,49,-99.99,,,-99.99,,2013-03-19 23:51:00,
2013-03-19 17:02:00,62.0,44.0,30.12,SW,216,7.0,17.0,52,-99.99,,,-99.99,,2013-03-20 00:02:00,
2013-03-19 17:12:00,62.0,44.0,30.12,SW,216,7.0,17.0,52,-99.99,,,-99.99,,2013-03-20 00:12:00,
2013-03-19 17:21:00,59.0,45.0,30.13,SW,230,3.0,11.0,60,-99.99,,,-99.99,,2013-03-20 00:21:00,
2013-03-19 17:32:00,58.0,44.0,30.14,SW,229,7.0,14.0,59,-99.99,,,-99.99,,2013-03-20 00:32:00,
2013-03-19 17:42:00,58.0,44.0,30.14,SW,229,7.0,14.0,59,-99.99,,,-99.99,,2013-03-20 00:42:00,
2013-03-19 17:52:00,57.0,44.0,30.15,SW,233,6.0,12.0,62,-99.99,,,-99.99,,2013-03-20 00:52:00,
2013-03-19 18:02:00,55.0,45.0,30.15,SW,227,6.0,8.0,68,-99.99,,,-99.99,,2013-03-20 01:02:00,
2013-03-19 18:11:00,55.0,45.0,30.15,SW,227,6.0,8.0,68,-99.99,,,-99.99,,2013-03-20 01:11:00,
2013-03-19 18:22:00,55.0,45.0,30.15,SW,227,6.0,8.0,68,-99.99,,,-99.99,,2013-03-20 01:22:00,
2013-03-19 18:32:00,55.0,45.0,30.15,SSW,212,3.0,7.0,69,-99.99,,,-99.99,,2013-03-20 01:32:00,
2013-03-19 18:42:00,55.0,45.0,30.15,SSW,212,3.0,7.0,69,-99.99,,,-99.99,,2013-03-20 01:42:00,
2013-03-19 18:52:00,55.0,45.0,30.15,SSW,208,3.0,8.0,69,-99.99,,,-99.99,,2013-03-20 01:52:00,
2013-03-19 19:02:00,54.0,44.0,30.16,SW,232,10.0,13.0,68,-99.99,,,-99.99,,2013-03-20 02:02:00,
2013-03-19 19:11:00,54.0,44.0,30.16,SW,232,10.0,13.0,68,-99.99,,,-99.99,,2013-03-20 02:11:00,
2013-03-19 19:21:00,54.0,44.0,30.17,SW,226,11.0,16.0,69,-99.99,,,-99.99,,2013-03-20 02:21:00,
2013-03-19 19:32:00,53.0,46.0,30.17,WSW,247,0.0,5.0,76,-99.99,,,-99.99,,2013-03-20 02:32:00,
2013-03-19 19:42:00,53.0,46.0,30.17,WSW,247,0.0,5.0,76,-99.99,,,-99.99,,2013-03-20 02:42:00,
2013-03-19 19:52:00,52.0,45.0,30.17,West,263,2.0,3.0,77,-99.99,,,-99.99,,2013-03-20 02:52:00,
2013-03-19 20:01:00,52.0,45.0,30.17,ENE,66,2.0,3.0,78,-99.99,,,-99.99,,2013-03-20 03:01:00,
2013-03-19 20:11:00,52.0,45.0,30.16,NE,56,2.0,8.0,78,-99.99,,,-99.99,,2013-03-20 03:11:00,
2013-03-19 20:22:00,52.0,45.0,30.16,NE,56,2.0,8.0,78,-99.99,,,-99.99,,2013-03-20 03:22:00,
2013-03-19 20:33:00,51.0,47.0,30.16,ENE,58,2.0,5.0,85,-99.99,,,-99.99,,2013-03-20 03:33:00,
2013-03-19 20:42:00,51.0,47.0,30.16,ENE,58,2.0,5.0,85,-99.99,,,-99.99,,2013-03-20 03:42:00,
2013-03-19 20:52:00,51.0,47.0,30.15,NE,42,8.0,13.0,86,-99.99,,,-99.99,,2013-03-20 03:52:00,
2013-03-19 21:02:00,51.0,48.0,30.14,NE,34,8.0,11.0,89,-99.99,,,-99.99,,2013-03-20 04:02:00,
2013-03-19 21:12:00,51.0,48.0,30.14,NE,34,8.0,11.0,89,-99.99,,,-99.99,,2013-03-20 04:12:00,
2013-03-19 21:22:00,51.0,48.0,30.14,NE,34,8.0,11.0,89,-99.99,,,-99.99,,2013-03-20 04:22:00,
2013-03-19 21:32:00,51.0,48.0,30.14,NE,34,8.0,11.0,89,-99.99,,,-99.99,,2013-03-20 04:32:00,
2013-03-19 21:42:00,51.0,48.0,30.14,NE,34,8.0,11.0,89,-99.99,,,-99.99,,2013-03-20 04:42:00,
2013-03-19 21:52:00,52.0,49.0,30.12,NNE,21,6.0,8.0,89,-99.99,,,-99.99,,2013-03-20 04:52:00,
2013-03-19 22:02:00,52.0,49.0,30.12,ENE,72,3.0,8.0,89,-99.99,,,-99.99,,2013-03-20 05:02:00,
2013-03-19 22:12:00,52.0,49.0,30.13,NNE,13,7.0,7.0,88,-99.99,,,-99.99,,2013-03-20 05:12:00,
2013-03-19 22:22:00,52.0,49.0,30.13,NNE,13,7.0,7.0,88,-99.99,,,-99.99,,2013-03-20 05:22:00,
2013-03-19 22:32:00,53.0,49.0,30.12,NNE,17,6.0,6.0,87,-99.99,,,-99.99,,2013-03-20 05:32:00,
2013-03-19 22:42:00,53.0,49.0,30.12,NNE,17,6.0,6.0,87,-99.99,,,-99.99,,2013-03-20 05:42:00,
2013-03-19 22:52:00,53.0,49.0,30.12,NNE,17,6.0,6.0,87,-99.99,,,-99.99,,2013-03-20 05:52:00,
2013-03-19 23:02:00,53.0,49.0,30.11,North,1,2.0,5.0,86,-99.99,,,-99.99,,2013-03-20 06:02:00,
2013-03-19 23:12:00,53.0,49.0,30.11,North,1,2.0,5.0,86,-99.99,,,-99.99,,2013-03-20 06:12:00,
2013-03-19 23:22:00,53.0,49.0,30.11,North,11,3.0,7.0,85,-99.99,,,-99.99,,2013-03-20 06:22:00,
2013-03-19 23:32:00,54.0,50.0,30.11,NNE,30,1.0,6.0,85,-99.99,,,-99.99,,2013-03-20 06:32:00,
2013-03-19 23:42:00,54.0,50.0,30.11,NNE,30,1.0,6.0,85,-99.99,,,-99.99,,2013-03-20 06:42:00,
2013-03-19 23:51:00,54.0,50.0,30.11,NNE,30,1.0,6.0,85,-99.99,,,-99.99,,2013-03-20 06:51:00,